createdAt,value
2019-04-28T00:07:30.000Z,45.1
2019-04-28T00:17:30.000Z,45
2019-04-28T00:27:30.000Z,44.8
2019-04-28T01:07:30.000Z,45
2019-04-28T01:17:30.000Z,45.8
2019-04-28T01:27:30.000Z,45.5
2019-04-28T01:37:30.000Z,45.3
2019-04-28T01:47:30.000Z,45.3
2019-04-28T01:57:30.000Z,44.9
2019-04-28T02:07:31.000Z,44.8
2019-04-28T02:17:30.000Z,44.6
2019-04-28T02:27:30.000Z,45.2
2019-04-28T02:47:30.000Z,45.3
2019-04-28T02:57:34.000Z,44.6
2019-04-28T03:07:30.000Z,45
2019-04-28T03:17:30.000Z,45.1
2019-04-28T03:27:30.000Z,44.7
2019-04-28T03:37:31.000Z,44.5
2019-04-28T03:47:31.000Z,44.4
2019-04-28T03:57:31.000Z,44.3
2019-04-28T04:07:31.000Z,44.1
2019-04-28T04:17:32.000Z,45.2
2019-04-28T04:37:31.000Z,46.1
2019-04-28T04:47:31.000Z,44.3
2019-04-28T04:57:32.000Z,44.4
2019-04-28T05:07:31.000Z,45
2019-04-28T05:17:32.000Z,44.7
2019-04-28T05:27:31.000Z,44.6
2019-04-28T05:37:31.000Z,44.8
2019-04-28T05:47:32.000Z,44.9
2019-04-28T05:57:33.000Z,44.4
2019-04-28T06:07:33.000Z,44.3
2019-04-28T06:17:31.000Z,44.7
2019-04-28T06:27:33.000Z,45.1
2019-04-28T06:37:31.000Z,44.8
2019-04-28T06:47:31.000Z,44.2
2019-04-28T07:07:33.000Z,44.3
2019-04-28T07:17:33.000Z,44.3
2019-04-28T07:27:31.000Z,44.1
2019-04-28T07:37:32.000Z,44.1
2019-04-28T07:47:31.000Z,44.6
2019-04-28T07:57:31.000Z,45.2
2019-04-28T08:07:31.000Z,45.3
2019-04-28T08:17:32.000Z,45.9
2019-04-28T08:27:31.000Z,46.4
2019-04-28T08:37:35.000Z,47.3
2019-04-28T08:47:31.000Z,47.5
2019-04-28T08:57:35.000Z,47.8
2019-04-28T09:07:31.000Z,47.7
2019-04-28T09:17:33.000Z,47.6
2019-04-28T09:27:31.000Z,47.9
2019-04-28T09:37:33.000Z,47.9
2019-04-28T09:57:34.000Z,47.4
2019-04-28T10:07:31.000Z,47.6
2019-04-28T10:17:31.000Z,47.3
2019-04-28T10:27:31.000Z,49.1
2019-04-28T10:37:32.000Z,49.7
2019-04-28T10:47:36.000Z,50.3
2019-04-28T10:57:32.000Z,49.9
2019-04-28T11:07:32.000Z,49.8
2019-04-28T11:17:32.000Z,49.8
2019-04-28T11:37:32.000Z,49.8
2019-04-28T11:47:32.000Z,49.9
2019-04-28T11:57:33.000Z,49.9
2019-04-28T12:07:32.000Z,49.9
2019-04-28T12:17:32.000Z,50
2019-04-28T12:27:32.000Z,50
2019-04-28T12:37:32.000Z,50.1
2019-04-28T12:47:34.000Z,50
2019-04-28T12:57:32.000Z,50.1
2019-04-28T13:07:32.000Z,50
2019-04-28T13:17:32.000Z,50
2019-04-28T13:27:32.000Z,49.9
2019-04-28T13:37:32.000Z,49.9
2019-04-28T13:47:32.000Z,49.9
2019-04-28T13:57:32.000Z,50
2019-04-28T14:07:32.000Z,49.9
2019-04-28T14:17:32.000Z,50
2019-04-28T14:27:32.000Z,49.9
2019-04-28T14:37:32.000Z,50
2019-04-28T14:47:32.000Z,50
2019-04-28T14:57:32.000Z,50.3
2019-04-28T15:07:33.000Z,50.6
2019-04-28T15:17:32.000Z,50.5
2019-04-28T15:27:32.000Z,50.6
2019-04-28T15:37:32.000Z,50.8
2019-04-28T15:47:32.000Z,50.8
2019-04-28T15:57:32.000Z,50.8
2019-04-28T16:07:32.000Z,50.9
2019-04-28T16:17:32.000Z,50.9
2019-04-28T16:27:32.000Z,50.9
2019-04-28T16:37:32.000Z,50.9
2019-04-28T16:47:34.000Z,51.1
2019-04-28T16:57:32.000Z,51.1
2019-04-28T17:07:32.000Z,51.3
2019-04-28T17:17:32.000Z,51.3
2019-04-28T17:27:33.000Z,51.1
2019-04-28T17:37:33.000Z,50.8
2019-04-28T17:47:33.000Z,50.4
2019-04-28T17:57:35.000Z,49.9
2019-04-28T18:07:34.000Z,49.6
2019-04-28T18:17:33.000Z,49.7
2019-04-28T18:27:33.000Z,49.3
2019-04-28T18:37:33.000Z,49.1
2019-04-28T18:47:33.000Z,48.8
2019-04-28T18:57:33.000Z,48.6
2019-04-28T19:07:33.000Z,48.6
2019-04-28T19:17:33.000Z,48.6
2019-04-28T19:27:33.000Z,48.2
2019-04-28T19:37:33.000Z,48.2
2019-04-28T19:47:33.000Z,48.2
2019-04-28T19:57:33.000Z,48
2019-04-28T20:07:33.000Z,48.1
2019-04-28T20:17:33.000Z,47.8
2019-04-28T20:27:33.000Z,47.7
2019-04-28T20:37:33.000Z,47.7
2019-04-28T20:47:33.000Z,48.2
2019-04-28T20:57:33.000Z,48
2019-04-28T21:07:33.000Z,48.3
2019-04-28T21:17:33.000Z,48.5
2019-04-28T21:27:33.000Z,48.6
2019-04-28T21:37:33.000Z,48.8
2019-04-28T21:57:33.000Z,48.9
2019-04-28T22:07:33.000Z,49.5
2019-04-28T22:17:33.000Z,47.4
2019-04-28T22:27:33.000Z,44.2
2019-04-28T22:37:33.000Z,44.3
2019-04-28T22:47:35.000Z,44.1
2019-04-28T22:57:33.000Z,44.3
2019-04-28T23:07:33.000Z,44.6
2019-04-28T23:17:34.000Z,44.7
2019-04-28T23:27:33.000Z,44.9
2019-04-28T23:37:33.000Z,44.8
2019-04-28T23:47:33.000Z,44.6
2019-04-28T23:57:33.000Z,44.4
